Terminal Aerodrome Forecast
Issued by NWS

Home | Current Version | Previous Version | Text Only | Print | Product List | Glossary On
Versions: 1 2 3 4 5 6 7 8 9 10 11 12 13 14 15 16 17 18 19 20
000
FTUS42 KTAE 190500 CCA
TAFVLD
TAF COR
KVLD 190545Z 1906/2006 00000KT P6SM BKN250
     FM191600 04005KT P6SM BKN050 OVC100
     FM192200 02004KT 5SM -RA OVC040
     FM200500 00000KT P6SM SCT050 OVC120=

USA.gov is the U.S. government's official web portal to all federal, state and local government web resources and services.